East Oolitic, Indiana
Current Conditions -  °F | °C
As of 9:53 AM on Monday 24 Nov 2014 (Local Time) from KBMG Reporting Station
Overcast Overcast  
Wind Chill: 34°   Ceiling: 1100
Heat Index: 43°   Visibility: 10mi
Dew Point: 40°   Wind: 22mph
Humidity: 89%   Direction: 260°W
Pressure: 29.46"   Gusts: 32mph
Location:  38.8737°N, 86.4563°W
Report Text: KBMG 241453Z 26019G28KT 10SM OVC011 06/04 A2946 RMK AO2 PK WND 23033/1423 PRESRR SLP976 60001 T00610044 53079
Loading
Personal Weather Stations






























Interactive Weather Map New forecast layout! Learn more

10-Day Weather Forecast

Advertisements
Track Severe Weather on mobile